Terminal Aerodrome Forecast
Issued by NWS Sterling, VA

Current Version | Previous Version | Text Only | Print | Product List | Glossary Off
Versions: 1 2 3 4 5 6 7 8 9 10 11 12 13 14 15 16 17 18 19 20 21 22 23 24 25 26 27 28 29 30 31 32

000
FTUS41 KLWX 201729
TAFDCA
TAF
KDCA 201729Z 2018/2118 20010KT P6SM FEW030 SCT250
     FM202100 20012G20KT P6SM VCTS BKN035CB
     FM210200 22009KT P6SM BKN045
     FM210800 28007KT P6SM BKN040
     FM211100 28009KT P6SM SCT060
     FM211600 28013KT P6SM FEW250=

USA.gov is the U.S. government's official web portal to all federal, state and local government web resources and services.